createdAt,value
2019-03-30T00:01:56.247Z,65.50
2019-03-30T00:04:25.333Z,65.40
2019-03-30T00:06:53.893Z,66.00
2019-03-30T00:09:23.232Z,66.30
2019-03-30T00:11:52.501Z,66.90
2019-03-30T00:14:21.146Z,66.90
2019-03-30T00:16:49.990Z,66.80
2019-03-30T00:19:18.963Z,66.90
2019-03-30T00:21:48.205Z,67.20
2019-03-30T00:24:17.141Z,68.20
2019-03-30T00:26:45.595Z,68.60
2019-03-30T00:29:14.657Z,69.10
2019-03-30T00:31:43.627Z,69.80
2019-03-30T00:34:12.859Z,70.10
2019-03-30T00:36:42.520Z,69.90
2019-03-30T00:39:11.735Z,70.40
2019-03-30T00:41:40.407Z,71.20
2019-03-30T00:44:09.456Z,71.40
2019-03-30T00:46:38.100Z,71.60
2019-03-30T00:49:07.391Z,72.30
2019-03-30T00:51:36.055Z,72.70
2019-03-30T00:54:04.891Z,73.00
2019-03-30T00:56:33.856Z,73.00
2019-03-30T00:59:02.965Z,73.90
2019-03-30T01:01:31.739Z,74.50
2019-03-30T01:04:00.732Z,74.50
2019-03-30T01:06:29.436Z,75.50
2019-03-30T01:08:58.412Z,76.30
2019-03-30T01:11:27.739Z,78.70
2019-03-30T01:13:56.401Z,76.10
2019-03-30T01:16:25.191Z,76.70
2019-03-30T01:18:54.717Z,77.10
2019-03-30T01:21:23.800Z,77.10
2019-03-30T01:23:53.018Z,77.60
2019-03-30T01:26:21.631Z,77.30
2019-03-30T01:28:50.050Z,77.40
2019-03-30T01:31:19.060Z,77.80
2019-03-30T01:33:48.249Z,78.00
2019-03-30T01:36:17.361Z,78.90
2019-03-30T01:38:46.004Z,79.30
2019-03-30T01:41:15.026Z,79.50
2019-03-30T01:43:44.331Z,80.10
2019-03-30T01:46:13.308Z,80.00
2019-03-30T01:48:42.019Z,79.50
2019-03-30T01:51:11.302Z,79.70
2019-03-30T01:53:40.285Z,80.00
2019-03-30T01:56:09.304Z,80.50
2019-03-30T01:58:38.079Z,81.80
2019-03-30T02:01:07.292Z,81.80
2019-03-30T02:03:36.223Z,80.80
2019-03-30T02:06:05.456Z,81.60
2019-03-30T02:08:33.921Z,81.60
2019-03-30T02:11:03.284Z,82.00
2019-03-30T02:13:31.911Z,82.10
2019-03-30T02:16:01.500Z,83.20
2019-03-30T02:18:30.873Z,82.90
2019-03-30T02:20:59.552Z,82.60
2019-03-30T02:23:28.828Z,83.10
2019-03-30T02:25:57.528Z,83.20
2019-03-30T02:28:29.574Z,83.40
2019-03-30T02:30:59.102Z,83.20
2019-03-30T02:33:28.004Z,83.50
2019-03-30T02:35:57.159Z,83.50
2019-03-30T02:38:25.545Z,84.20
2019-03-30T02:40:54.206Z,83.80
2019-03-30T02:43:23.243Z,84.10
2019-03-30T02:45:52.349Z,85.00
2019-03-30T02:48:21.525Z,85.00
2019-03-30T02:50:50.842Z,85.40
2019-03-30T02:53:19.815Z,85.70
2019-03-30T02:55:48.323Z,85.90
2019-03-30T02:58:17.298Z,86.60
2019-03-30T03:00:46.497Z,86.60
2019-03-30T03:03:15.173Z,86.50
2019-03-30T03:05:43.961Z,87.30
2019-03-30T03:08:13.198Z,87.70
2019-03-30T03:10:42.161Z,87.90
2019-03-30T03:13:11.249Z,87.90
2019-03-30T03:15:39.925Z,88.70
2019-03-30T03:18:08.969Z,88.60
2019-03-30T03:20:37.592Z,88.90
2019-03-30T03:23:06.592Z,89.20
2019-03-30T03:25:34.981Z,89.30
2019-03-30T03:28:17.049Z,89.60
2019-03-30T03:30:44.081Z,90.20
2019-03-30T03:33:18.210Z,90.00
2019-03-30T03:35:44.984Z,90.40
2019-03-30T03:38:13.577Z,90.30
2019-03-30T03:40:53.125Z,90.60
2019-03-30T03:43:22.305Z,90.70
2019-03-30T03:45:51.288Z,90.90
2019-03-30T03:48:20.323Z,90.80
2019-03-30T03:50:56.531Z,91.10
2019-03-30T03:53:25.049Z,91.20
2019-03-30T03:55:54.408Z,91.50
2019-03-30T03:58:25.362Z,91.50
2019-03-30T04:00:57.171Z,91.30
2019-03-30T04:03:28.249Z,91.40
2019-03-30T04:05:59.637Z,91.60
2019-03-30T04:08:30.033Z,91.60
2019-03-30T04:10:58.984Z,91.70
2019-03-30T04:13:28.880Z,91.80
2019-03-30T04:15:57.670Z,91.90
2019-03-30T04:18:29.620Z,92.10
2019-03-30T04:20:58.747Z,92.30
2019-03-30T04:23:27.375Z,92.50
2019-03-30T04:25:56.596Z,92.60
2019-03-30T04:28:27.756Z,95.30
2019-03-30T04:30:56.151Z,94.20
2019-03-30T04:33:24.433Z,93.50
2019-03-30T04:35:53.768Z,93.00
2019-03-30T04:38:22.052Z,92.90
2019-03-30T04:40:50.611Z,93.00
2019-03-30T04:43:18.880Z,93.20
2019-03-30T04:45:47.157Z,93.10
2019-03-30T04:48:15.437Z,93.30
2019-03-30T04:50:43.690Z,93.30
2019-03-30T04:53:11.940Z,93.40
2019-03-30T04:55:40.590Z,93.60
2019-03-30T04:58:09.701Z,93.70
2019-03-30T05:00:38.160Z,93.60
2019-03-30T05:03:06.411Z,93.90
2019-03-30T05:05:34.664Z,93.60
2019-03-30T05:08:03.011Z,93.80
2019-03-30T05:10:31.270Z,93.90
2019-03-30T05:12:59.517Z,94.00
2019-03-30T05:15:27.764Z,94.10
2019-03-30T05:17:56.024Z,94.30
2019-03-30T05:20:24.282Z,94.30
2019-03-30T05:22:52.580Z,94.00
2019-03-30T05:25:20.840Z,94.10
2019-03-30T05:27:49.096Z,94.10
2019-03-30T05:30:18.023Z,94.20
2019-03-30T05:32:46.255Z,94.00
2019-03-30T05:35:14.542Z,94.00
2019-03-30T05:37:42.801Z,94.10
2019-03-30T05:40:11.241Z,94.30
2019-03-30T05:42:39.513Z,94.50
2019-03-30T05:45:08.006Z,94.60
2019-03-30T05:47:36.255Z,95.20
2019-03-30T05:50:06.899Z,95.30
2019-03-30T05:52:35.835Z,95.30
2019-03-30T05:55:04.490Z,95.50
2019-03-30T05:57:32.664Z,94.80
2019-03-30T06:00:03.192Z,94.20
2019-03-30T06:02:31.902Z,93.40
2019-03-30T06:05:03.146Z,92.60
2019-03-30T06:07:30.260Z,91.80
2019-03-30T06:09:58.530Z,91.00
2019-03-30T06:12:26.843Z,89.60
2019-03-30T06:14:55.069Z,87.50
2019-03-30T06:17:23.312Z,86.10
2019-03-30T06:19:51.634Z,85.10
2019-03-30T06:22:20.679Z,82.50
2019-03-30T06:24:48.988Z,81.60
2019-03-30T06:27:17.244Z,81.30
2019-03-30T06:30:08.664Z,79.90
2019-03-30T06:32:36.952Z,77.60
2019-03-30T06:35:05.383Z,77.20
2019-03-30T06:37:33.687Z,74.40
2019-03-30T06:40:02.597Z,74.00
2019-03-30T06:42:30.869Z,72.40
2019-03-30T06:44:59.195Z,70.00
2019-03-30T06:47:27.843Z,69.90
2019-03-30T06:49:56.149Z,69.70
2019-03-30T06:52:24.397Z,68.00
2019-03-30T06:54:53.069Z,67.10
2019-03-30T06:57:21.319Z,64.90
2019-03-30T06:59:49.952Z,62.60
2019-03-30T07:02:18.621Z,61.30
2019-03-30T07:04:47.014Z,59.80
2019-03-30T07:07:16.444Z,59.40
2019-03-30T07:09:47.332Z,59.00
2019-03-30T07:12:18.802Z,58.00
2019-03-30T07:14:49.299Z,56.90
2019-03-30T07:17:17.979Z,56.70
2019-03-30T07:19:49.667Z,55.60
2019-03-30T07:22:17.943Z,54.50
2019-03-30T07:24:46.595Z,52.90
2019-03-30T07:27:15.692Z,51.60
2019-03-30T07:29:43.927Z,51.10
2019-03-30T07:32:12.247Z,51.00
2019-03-30T07:34:41.860Z,51.20
2019-03-30T07:37:10.464Z,50.50
2019-03-30T07:39:38.747Z,50.40
2019-03-30T07:42:07.001Z,51.30
2019-03-30T07:44:35.262Z,51.60
2019-03-30T07:47:03.523Z,51.40
2019-03-30T07:49:31.815Z,51.10
2019-03-30T07:52:00.082Z,50.10
2019-03-30T07:54:28.334Z,49.70
2019-03-30T07:57:04.983Z,49.50
2019-03-30T07:59:26.637Z,49.50
2019-03-30T08:01:54.899Z,49.30
2019-03-30T08:04:23.184Z,49.60
2019-03-30T08:06:51.427Z,49.50
2019-03-30T08:09:19.689Z,49.90
2019-03-30T08:11:48.280Z,49.20
2019-03-30T08:14:16.528Z,48.40
2019-03-30T08:16:44.811Z,47.60
2019-03-30T08:19:13.069Z,47.50
2019-03-30T08:21:41.959Z,46.60
2019-03-30T08:24:10.318Z,46.70
2019-03-30T08:26:38.549Z,46.10
2019-03-30T08:29:06.839Z,46.30
2019-03-30T08:31:35.107Z,45.50
2019-03-30T08:34:03.684Z,44.80
2019-03-30T08:36:32.000Z,44.10
2019-03-30T08:39:00.620Z,43.40
2019-03-30T08:41:28.876Z,43.20
2019-03-30T08:43:57.133Z,42.10
2019-03-30T08:46:25.368Z,41.60
2019-03-30T08:48:53.651Z,41.20
2019-03-30T08:51:22.229Z,40.70
2019-03-30T08:53:54.826Z,40.50
2019-03-30T08:56:20.558Z,39.50
2019-03-30T08:58:48.796Z,39.90
2019-03-30T09:01:17.071Z,40.20
2019-03-30T09:03:45.305Z,39.00
2019-03-30T09:06:13.595Z,38.70
2019-03-30T09:08:41.855Z,39.00
2019-03-30T09:11:10.095Z,38.80
2019-03-30T09:13:39.597Z,40.10
2019-03-30T09:16:07.867Z,40.00
2019-03-30T09:18:36.132Z,38.40
2019-03-30T09:21:04.476Z,38.40
2019-03-30T09:23:32.799Z,37.80
2019-03-30T09:26:01.068Z,37.60
2019-03-30T09:28:29.299Z,37.90
2019-03-30T09:30:57.563Z,37.30
2019-03-30T09:33:25.866Z,37.40
2019-03-30T09:36:07.614Z,37.70
2019-03-30T09:38:35.786Z,36.40
2019-03-30T09:41:04.040Z,35.60
2019-03-30T09:43:33.131Z,36.70
2019-03-30T09:46:01.368Z,37.00
2019-03-30T09:48:29.619Z,36.60
2019-03-30T09:50:57.865Z,36.70
2019-03-30T09:53:26.592Z,36.50
2019-03-30T09:55:54.869Z,36.80
2019-03-30T09:58:23.107Z,36.50
2019-03-30T10:00:51.362Z,36.50
2019-03-30T10:03:19.627Z,36.80
2019-03-30T10:05:47.905Z,36.20
2019-03-30T10:08:16.175Z,35.70
2019-03-30T10:10:44.456Z,34.30
2019-03-30T10:13:12.700Z,34.70
2019-03-30T10:15:40.935Z,35.20
2019-03-30T10:18:09.190Z,34.80
2019-03-30T10:20:37.444Z,35.20
2019-03-30T10:23:05.672Z,35.50
2019-03-30T10:25:33.917Z,35.40
2019-03-30T10:28:02.159Z,35.30
2019-03-30T10:30:30.487Z,35.50
2019-03-30T10:32:58.765Z,34.70
2019-03-30T10:35:27.064Z,34.00
2019-03-30T10:37:55.376Z,34.00
2019-03-30T10:40:23.573Z,33.00
2019-03-30T10:42:51.815Z,32.30
2019-03-30T10:45:20.372Z,32.60
2019-03-30T10:47:48.611Z,32.60
2019-03-30T10:50:16.848Z,32.60
2019-03-30T10:52:45.087Z,32.70
2019-03-30T10:55:13.316Z,32.50
2019-03-30T10:57:42.656Z,32.10
2019-03-30T11:00:13.563Z,32.40
2019-03-30T11:02:41.809Z,32.10
2019-03-30T11:05:10.084Z,32.30
2019-03-30T11:07:38.312Z,32.20
2019-03-30T11:10:07.402Z,32.10
2019-03-30T11:12:35.642Z,31.10
2019-03-30T11:15:04.422Z,30.70
2019-03-30T11:17:32.714Z,31.80
2019-03-30T11:20:00.942Z,31.40
2019-03-30T11:22:29.200Z,31.00
2019-03-30T11:25:07.226Z,31.10
2019-03-30T11:27:27.523Z,30.40
2019-03-30T11:29:55.772Z,30.80
2019-03-30T11:32:24.528Z,31.10
2019-03-30T11:34:52.812Z,31.40
2019-03-30T11:37:21.054Z,31.00
2019-03-30T11:39:49.299Z,31.30
2019-03-30T11:42:17.557Z,32.20
2019-03-30T11:44:45.831Z,31.00
2019-03-30T11:47:14.096Z,32.70
2019-03-30T11:49:42.355Z,30.70
2019-03-30T11:52:10.595Z,31.20
2019-03-30T11:54:38.859Z,31.40
2019-03-30T11:57:07.137Z,32.00
2019-03-30T11:59:35.404Z,32.50
2019-03-30T12:02:04.145Z,31.60
2019-03-30T12:04:32.419Z,30.00
2019-03-30T12:07:00.647Z,30.00
2019-03-30T12:09:28.912Z,30.40
2019-03-30T12:11:57.239Z,29.80
2019-03-30T12:14:25.488Z,30.40
2019-03-30T12:16:53.759Z,30.70
2019-03-30T12:19:22.065Z,30.50
2019-03-30T12:22:05.662Z,30.40
2019-03-30T12:24:33.589Z,30.10
2019-03-30T12:27:02.392Z,28.30
2019-03-30T12:29:31.348Z,29.00
2019-03-30T12:32:00.341Z,28.90
2019-03-30T12:34:29.009Z,26.80
2019-03-30T12:36:58.243Z,27.30
2019-03-30T12:39:26.796Z,28.20
2019-03-30T12:41:55.579Z,28.50
2019-03-30T12:44:24.879Z,29.10
2019-03-30T12:46:55.119Z,28.70
2019-03-30T12:49:23.459Z,28.30
2019-03-30T12:51:52.491Z,29.10
2019-03-30T12:54:21.688Z,27.00
2019-03-30T12:56:50.808Z,28.20
2019-03-30T12:59:19.867Z,28.00
2019-03-30T13:01:51.892Z,28.60
2019-03-30T13:04:20.623Z,28.90
2019-03-30T13:06:49.370Z,29.40
2019-03-30T13:09:17.892Z,29.60
2019-03-30T13:11:46.543Z,30.00
2019-03-30T13:14:15.554Z,29.70
2019-03-30T13:16:44.371Z,29.90
2019-03-30T13:19:13.343Z,30.50
2019-03-30T13:21:52.450Z,29.80
2019-03-30T13:24:12.724Z,30.00
2019-03-30T13:26:41.551Z,30.70
2019-03-30T13:29:10.107Z,31.10
2019-03-30T13:31:38.479Z,30.80
2019-03-30T13:34:07.122Z,30.70
2019-03-30T13:36:38.340Z,31.10
2019-03-30T13:39:07.088Z,31.00
2019-03-30T13:41:35.986Z,31.80
2019-03-30T13:44:04.821Z,30.50
2019-03-30T13:46:34.026Z,30.70
2019-03-30T13:49:03.129Z,30.00
2019-03-30T13:51:31.684Z,30.00
2019-03-30T13:54:00.356Z,30.00
2019-03-30T13:56:28.857Z,30.00
2019-03-30T13:58:57.755Z,29.90
2019-03-30T14:01:26.644Z,30.50
2019-03-30T14:03:55.089Z,30.00
2019-03-30T14:06:23.313Z,30.20
2019-03-30T14:08:51.576Z,29.90
2019-03-30T14:11:20.883Z,30.00
2019-03-30T14:13:49.523Z,30.20
2019-03-30T14:16:17.921Z,30.00
2019-03-30T14:18:46.719Z,29.70
2019-03-30T14:21:15.921Z,29.10
2019-03-30T14:23:44.662Z,29.20
2019-03-30T14:26:14.397Z,29.50
2019-03-30T14:28:43.507Z,29.50
2019-03-30T14:31:12.508Z,29.50
2019-03-30T14:33:41.169Z,29.20
2019-03-30T14:36:10.146Z,29.40
2019-03-30T14:38:38.971Z,29.80
2019-03-30T14:41:08.207Z,29.30
2019-03-30T14:43:36.830Z,29.50
2019-03-30T14:46:05.639Z,30.00
2019-03-30T14:48:34.656Z,30.00
2019-03-30T14:51:03.631Z,30.40
2019-03-30T14:53:32.622Z,30.00
2019-03-30T14:56:01.624Z,30.30
2019-03-30T14:58:30.316Z,29.90
2019-03-30T15:01:03.115Z,30.00
2019-03-30T15:03:30.548Z,29.60
2019-03-30T15:05:59.439Z,30.50
2019-03-30T15:08:28.327Z,30.50
2019-03-30T15:10:56.986Z,29.90
2019-03-30T15:13:25.825Z,30.30
2019-03-30T15:15:55.052Z,29.80
2019-03-30T15:18:23.981Z,29.90
2019-03-30T15:20:52.652Z,31.20
2019-03-30T15:23:21.671Z,30.20
2019-03-30T15:25:50.476Z,30.10
2019-03-30T15:28:19.457Z,29.60
2019-03-30T15:30:48.345Z,29.10
2019-03-30T15:33:17.639Z,30.00
2019-03-30T15:35:49.258Z,30.00
2019-03-30T15:38:17.788Z,30.30
2019-03-30T15:41:07.973Z,30.50
2019-03-30T15:43:38.675Z,30.80
2019-03-30T15:46:06.548Z,30.00
2019-03-30T15:48:34.855Z,29.80
2019-03-30T15:51:03.919Z,29.80
2019-03-30T15:53:33.249Z,30.70
2019-03-30T15:56:03.385Z,30.30
2019-03-30T15:58:32.726Z,30.00
2019-03-30T16:01:01.372Z,31.40
2019-03-30T16:03:29.959Z,32.50
2019-03-30T16:05:59.069Z,33.00
2019-03-30T16:08:28.059Z,33.40
2019-03-30T16:10:56.718Z,33.30
2019-03-30T16:13:25.107Z,33.30
2019-03-30T16:15:53.584Z,33.10
2019-03-30T16:18:22.271Z,33.10
2019-03-30T16:20:50.970Z,33.30
2019-03-30T16:23:19.606Z,33.20
2019-03-30T16:25:48.280Z,33.10
2019-03-30T16:28:17.034Z,32.80
2019-03-30T16:30:45.379Z,32.90
2019-03-30T16:33:14.038Z,33.10
2019-03-30T16:35:42.433Z,33.00
2019-03-30T16:38:11.736Z,33.00
2019-03-30T16:40:40.543Z,33.60
2019-03-30T16:43:09.179Z,33.20
2019-03-30T16:45:37.819Z,33.40
2019-03-30T16:48:06.185Z,33.60
2019-03-30T16:50:34.547Z,33.80
2019-03-30T16:53:03.367Z,33.80
2019-03-30T16:55:31.599Z,34.00
2019-03-30T16:58:00.345Z,34.10
2019-03-30T17:00:32.429Z,34.00
2019-03-30T17:03:01.459Z,34.00
2019-03-30T17:05:30.684Z,34.10
2019-03-30T17:07:59.655Z,33.80
2019-03-30T17:10:29.304Z,34.00
2019-03-30T17:12:58.587Z,33.70
2019-03-30T17:15:27.678Z,33.50
2019-03-30T17:17:56.490Z,33.90
2019-03-30T17:20:25.030Z,34.30
2019-03-30T17:22:53.414Z,34.90
2019-03-30T17:25:22.075Z,35.20
2019-03-30T17:27:58.081Z,36.00
2019-03-30T17:30:21.948Z,36.40
2019-03-30T17:32:51.032Z,36.80
2019-03-30T17:35:19.855Z,37.30
2019-03-30T17:37:49.125Z,37.40
2019-03-30T17:40:18.297Z,37.70
2019-03-30T17:42:46.735Z,38.10
2019-03-30T17:45:15.311Z,38.70
2019-03-30T17:47:43.807Z,39.20
2019-03-30T17:50:13.043Z,39.80
2019-03-30T17:52:41.903Z,40.00
2019-03-30T17:55:10.817Z,40.20
2019-03-30T17:57:39.418Z,40.60
2019-03-30T18:00:09.643Z,40.80
2019-03-30T18:02:38.431Z,41.00
2019-03-30T18:05:07.492Z,41.30
2019-03-30T18:07:36.349Z,41.60
2019-03-30T18:10:05.283Z,41.80
2019-03-30T18:12:33.554Z,42.00
2019-03-30T18:15:02.088Z,42.30
2019-03-30T18:17:31.160Z,42.60
2019-03-30T18:19:59.724Z,42.80
2019-03-30T18:22:28.198Z,43.10
2019-03-30T18:24:57.120Z,43.40
2019-03-30T18:27:40.859Z,43.60
2019-03-30T18:30:10.782Z,43.90
2019-03-30T18:32:40.712Z,44.20
2019-03-30T18:35:09.437Z,44.30
2019-03-30T18:37:38.863Z,44.60
2019-03-30T18:40:07.462Z,44.90
2019-03-30T18:42:36.342Z,45.00
2019-03-30T18:45:05.859Z,44.90
2019-03-30T18:47:34.248Z,45.00
2019-03-30T18:50:02.494Z,45.30
2019-03-30T18:52:30.784Z,45.10
2019-03-30T18:54:59.731Z,45.60
2019-03-30T18:57:28.767Z,45.50
2019-03-30T18:59:57.588Z,45.80
2019-03-30T19:02:26.184Z,45.80
2019-03-30T19:04:54.544Z,45.70
2019-03-30T19:07:23.035Z,45.50
2019-03-30T19:09:51.394Z,45.10
2019-03-30T19:12:19.975Z,45.00
2019-03-30T19:14:49.067Z,45.00
2019-03-30T19:17:17.807Z,44.70
2019-03-30T19:19:46.033Z,44.30
2019-03-30T19:22:14.259Z,44.60
2019-03-30T19:24:42.574Z,44.70
2019-03-30T19:27:11.459Z,45.00
2019-03-30T19:29:39.867Z,45.50
2019-03-30T19:32:08.095Z,48.90
2019-03-30T19:34:36.673Z,49.20
2019-03-30T19:37:05.095Z,48.20
2019-03-30T19:39:33.666Z,48.30
2019-03-30T19:42:01.969Z,48.90
2019-03-30T19:44:30.195Z,49.10
2019-03-30T19:46:58.553Z,49.50
2019-03-30T19:49:27.007Z,51.40
2019-03-30T19:51:55.386Z,52.10
2019-03-30T19:54:23.643Z,52.80
2019-03-30T19:56:51.891Z,53.50
2019-03-30T19:59:20.189Z,54.10
2019-03-30T20:01:48.609Z,54.70
2019-03-30T20:04:17.183Z,55.90
2019-03-30T20:06:45.501Z,56.70
2019-03-30T20:09:13.757Z,57.60
2019-03-30T20:11:42.382Z,58.70
2019-03-30T20:14:10.965Z,60.50
2019-03-30T20:16:42.223Z,63.70
2019-03-30T20:19:12.474Z,64.80
2019-03-30T20:21:40.720Z,66.90
2019-03-30T20:24:09.507Z,67.10
2019-03-30T20:26:38.707Z,68.20
2019-03-30T20:29:07.400Z,70.10
2019-03-30T20:31:36.119Z,70.70
2019-03-30T20:34:05.173Z,71.40
2019-03-30T20:36:35.387Z,71.20
2019-03-30T20:39:08.238Z,70.70
2019-03-30T20:41:36.044Z,70.80
2019-03-30T20:44:05.359Z,71.40
2019-03-30T20:46:33.824Z,70.40
2019-03-30T20:49:02.420Z,69.30
2019-03-30T20:51:31.440Z,70.30
2019-03-30T20:54:00.061Z,71.60
2019-03-30T20:56:28.909Z,73.40
2019-03-30T20:58:57.887Z,74.60
2019-03-30T21:01:27.055Z,75.00
2019-03-30T21:03:56.384Z,77.80
2019-03-30T21:06:25.033Z,78.70
2019-03-30T21:08:53.922Z,78.00
2019-03-30T21:11:22.854Z,79.70
2019-03-30T21:13:52.044Z,79.30
2019-03-30T21:16:20.691Z,79.30
2019-03-30T21:18:49.210Z,81.40
2019-03-30T21:21:17.752Z,81.70
2019-03-30T21:23:46.474Z,82.50
2019-03-30T21:26:15.567Z,84.40
2019-03-30T21:28:44.828Z,84.20
2019-03-30T21:31:13.764Z,84.60
2019-03-30T21:33:42.440Z,83.60
2019-03-30T21:36:11.117Z,84.00
2019-03-30T21:38:40.431Z,84.50
2019-03-30T21:41:09.083Z,84.40
2019-03-30T21:43:37.895Z,82.40
2019-03-30T21:46:06.918Z,83.70
2019-03-30T21:48:35.885Z,82.30
2019-03-30T21:51:04.987Z,82.00
2019-03-30T21:53:34.091Z,82.60
2019-03-30T21:56:03.376Z,81.90
2019-03-30T21:58:32.067Z,80.00
2019-03-30T22:01:00.712Z,80.70
2019-03-30T22:03:29.750Z,80.70
2019-03-30T22:05:58.533Z,80.40
2019-03-30T22:08:27.815Z,79.20
2019-03-30T22:10:56.399Z,79.20
2019-03-30T22:13:25.288Z,79.60
2019-03-30T22:15:55.583Z,79.20
2019-03-30T22:18:24.002Z,78.60
2019-03-30T22:20:52.812Z,78.20
2019-03-30T22:23:23.110Z,77.90
2019-03-30T22:25:51.882Z,77.60
2019-03-30T22:28:20.783Z,77.90
2019-03-30T22:30:49.276Z,77.00
2019-03-30T22:33:18.592Z,77.20
2019-03-30T22:35:47.269Z,76.80
2019-03-30T22:38:15.951Z,76.80
2019-03-30T22:40:44.752Z,76.20
2019-03-30T22:43:13.643Z,76.30
2019-03-30T22:45:42.942Z,76.30
2019-03-30T22:48:11.942Z,76.10
2019-03-30T22:50:40.576Z,75.10
2019-03-30T22:53:09.294Z,75.30
2019-03-30T22:55:38.619Z,75.10
2019-03-30T22:58:07.259Z,75.80
2019-03-30T23:00:55.136Z,75.10
2019-03-30T23:03:23.942Z,75.90
2019-03-30T23:05:52.743Z,75.20
2019-03-30T23:08:21.484Z,75.10
2019-03-30T23:10:50.687Z,75.00
2019-03-30T23:13:19.710Z,74.50
2019-03-30T23:15:48.676Z,75.30
2019-03-30T23:18:17.995Z,75.60
2019-03-30T23:20:46.674Z,75.90
2019-03-30T23:23:15.655Z,76.00
2019-03-30T23:25:44.465Z,75.90
2019-03-30T23:28:13.456Z,76.30
2019-03-30T23:30:53.436Z,76.20
2019-03-30T23:33:13.505Z,76.20
2019-03-30T23:35:42.493Z,75.90
2019-03-30T23:38:11.244Z,76.50
2019-03-30T23:40:40.442Z,76.40
2019-03-30T23:43:09.127Z,78.00
2019-03-30T23:45:37.800Z,77.50
2019-03-30T23:48:06.816Z,78.60
2019-03-30T23:50:35.726Z,79.20
2019-03-30T23:53:07.291Z,79.00
2019-03-30T23:55:36.649Z,78.90
2019-03-30T23:58:05.255Z,79.60
